createdAt,value
2018-11-02T00:02:19.329Z,29.60
2018-11-02T00:04:48.240Z,30.17
2018-11-02T00:07:17.218Z,28.10
2018-11-02T00:09:46.092Z,32.47
2018-11-02T00:12:14.990Z,27.40
2018-11-02T00:14:43.820Z,34.53
2018-11-02T00:17:12.692Z,28.70
2018-11-02T00:19:46.619Z,30.30
2018-11-02T00:22:15.519Z,33.63
2018-11-02T00:24:44.330Z,32.13
2018-11-02T00:27:13.166Z,32.80
2018-11-02T00:29:43.378Z,31.60
2018-11-02T00:32:12.283Z,26.53
2018-11-02T00:34:41.119Z,35.30
2018-11-02T00:37:09.947Z,27.57
2018-11-02T00:39:38.806Z,35.97
2018-11-02T00:42:07.763Z,29.83
2018-11-02T00:44:36.591Z,33.27
2018-11-02T00:47:05.618Z,29.17
2018-11-02T00:49:34.445Z,33.63
2018-11-02T00:52:03.279Z,29.43
2018-11-02T00:54:32.159Z,33.40
2018-11-02T00:57:01.054Z,30.80
2018-11-02T00:59:29.995Z,28.53
2018-11-02T01:01:58.862Z,32.07
2018-11-02T01:04:27.741Z,29.97
2018-11-02T01:06:56.604Z,26.80
2018-11-02T01:09:25.513Z,32.17
2018-11-02T01:11:54.407Z,29.17
2018-11-02T01:14:23.303Z,30.87
2018-11-02T01:16:52.311Z,33.47
2018-11-02T01:19:25.367Z,35.20
2018-11-02T01:21:54.352Z,33.47
2018-11-02T01:24:23.355Z,29.37
2018-11-02T01:26:52.257Z,30.27
2018-11-02T01:29:21.117Z,25.37
2018-11-02T01:31:50.104Z,27.63
2018-11-02T01:34:18.996Z,28.10
2018-11-02T01:36:47.874Z,27.47
2018-11-02T01:39:16.807Z,27.17
2018-11-02T01:41:45.742Z,27.97
2018-11-02T01:44:14.776Z,27.10
2018-11-02T01:46:43.615Z,22.87
2018-11-02T01:49:12.548Z,25.23
2018-11-02T01:51:41.360Z,24.03
2018-11-02T01:54:10.173Z,20.70
2018-11-02T01:56:39.050Z,24.00
2018-11-02T01:59:07.886Z,20.93
2018-11-02T02:01:37.116Z,21.80
2018-11-02T02:04:06.691Z,20.60
2018-11-02T02:06:35.559Z,20.63
2018-11-02T02:09:04.827Z,18.97
2018-11-02T02:11:33.708Z,20.27
2018-11-02T02:14:02.696Z,22.23
2018-11-02T02:16:31.619Z,21.57
2018-11-02T02:19:00.759Z,15.37
2018-11-02T02:21:29.638Z,17.03
2018-11-02T02:23:58.531Z,16.13
2018-11-02T02:26:27.595Z,15.27
2018-11-02T02:28:56.455Z,18.80
2018-11-02T02:31:25.390Z,20.27
2018-11-02T02:33:54.531Z,17.93
2018-11-02T02:36:23.526Z,16.63
2018-11-02T02:38:52.387Z,15.60
2018-11-02T02:41:21.306Z,16.60
2018-11-02T02:43:50.600Z,13.67
2018-11-02T02:46:19.519Z,15.70
2018-11-02T02:48:48.425Z,12.37
2018-11-02T02:51:17.312Z,16.07
2018-11-02T02:53:46.195Z,14.60
2018-11-02T02:56:15.402Z,13.37
2018-11-02T02:58:44.364Z,14.63
2018-11-02T03:01:13.207Z,15.93
2018-11-02T03:03:42.171Z,19.27
2018-11-02T03:06:11.098Z,14.03
2018-11-02T03:08:40.171Z,20.27
2018-11-02T03:11:09.390Z,11.13
2018-11-02T03:13:38.040Z,13.47
2018-11-02T03:16:13.514Z,17.47
2018-11-02T03:18:42.423Z,18.30
2018-11-02T03:21:11.341Z,21.03
2018-11-02T03:23:40.177Z,19.93
2018-11-02T03:26:09.022Z,18.87
2018-11-02T03:28:38.018Z,20.27
2018-11-02T03:31:06.940Z,20.40
2018-11-02T03:33:35.795Z,20.70
2018-11-02T03:36:04.795Z,20.53
2018-11-02T03:38:33.820Z,17.90
2018-11-02T03:41:02.756Z,20.70
2018-11-02T03:43:33.015Z,19.93
2018-11-02T03:46:01.909Z,19.80
2018-11-02T03:48:30.899Z,21.07
2018-11-02T03:50:59.865Z,18.97
2018-11-02T03:53:28.765Z,19.60
2018-11-02T03:55:57.799Z,19.07
2018-11-02T03:58:26.673Z,17.73
2018-11-02T04:00:56.329Z,18.52
2018-11-02T04:03:25.250Z,21.07
2018-11-02T04:05:54.186Z,16.13
2018-11-02T04:08:23.087Z,16.43
2018-11-02T04:10:52.051Z,13.97
2018-11-02T04:13:21.195Z,16.60
2018-11-02T04:15:50.059Z,16.63
2018-11-02T04:18:20.375Z,15.40
2018-11-02T04:20:49.204Z,16.00
2018-11-02T04:23:18.079Z,13.83
2018-11-02T04:25:46.990Z,14.35
2018-11-02T04:28:15.963Z,13.40
2018-11-02T04:30:44.879Z,13.33
2018-11-02T04:33:13.718Z,14.57
2018-11-02T04:35:43.839Z,17.53
2018-11-02T04:38:12.826Z,18.07
2018-11-02T04:40:41.685Z,12.47
2018-11-02T04:43:10.578Z,14.87
2018-11-02T04:45:40.465Z,15.77
2018-11-02T04:48:11.989Z,16.13
2018-11-02T04:50:41.455Z,17.77
2018-11-02T04:53:10.345Z,14.43
2018-11-02T04:55:39.280Z,14.50
2018-11-02T04:58:08.174Z,12.47
2018-11-02T05:00:37.138Z,14.83
2018-11-02T05:03:06.262Z,15.03
2018-11-02T05:05:36.675Z,19.37
2018-11-02T05:08:05.707Z,18.70
2018-11-02T05:10:34.790Z,13.67
2018-11-02T05:13:03.686Z,13.33
2018-11-02T05:15:32.555Z,14.30
2018-11-02T05:18:01.436Z,17.17
2018-11-02T05:20:30.302Z,16.83
2018-11-02T05:22:59.316Z,13.73
2018-11-02T05:25:28.186Z,14.50
2018-11-02T05:27:57.015Z,12.57
2018-11-02T05:30:25.934Z,15.00
2018-11-02T05:32:56.177Z,18.90
2018-11-02T05:35:25.137Z,17.90
2018-11-02T05:37:54.032Z,23.30
2018-11-02T05:40:22.855Z,15.50
2018-11-02T05:42:52.943Z,15.03
2018-11-02T05:45:21.822Z,17.23
2018-11-02T05:47:50.726Z,15.53
2018-11-02T05:50:19.698Z,15.97
2018-11-02T05:52:48.581Z,15.83
2018-11-02T05:55:18.878Z,12.60
2018-11-02T05:57:47.754Z,10.40
2018-11-02T06:00:16.734Z,15.80
2018-11-02T06:02:45.700Z,11.13
2018-11-02T06:05:14.891Z,12.60
2018-11-02T06:07:43.770Z,13.40
2018-11-02T06:10:12.702Z,13.10
2018-11-02T06:12:41.612Z,12.60
2018-11-02T06:15:10.509Z,12.80
2018-11-02T06:17:39.587Z,13.40
2018-11-02T06:20:09.534Z,18.67
2018-11-02T06:22:38.652Z,13.97
2018-11-02T06:25:08.902Z,15.43
2018-11-02T08:58:08.970Z,10.83
2018-11-02T09:00:37.585Z,17.17
2018-11-02T09:03:06.471Z,12.50
2018-11-02T09:05:36.454Z,11.70
2018-11-02T09:08:06.821Z,14.93
2018-11-02T09:10:35.784Z,10.77
2018-11-02T09:13:05.156Z,12.63
2018-11-02T09:15:34.173Z,12.37
2018-11-02T09:18:03.143Z,12.67
2018-11-02T09:20:32.155Z,10.47
2018-11-02T09:23:01.204Z,12.50
2018-11-02T09:25:30.182Z,12.47
2018-11-02T09:27:59.161Z,10.97
2018-11-02T09:30:28.722Z,11.53
2018-11-02T09:32:58.990Z,11.93
2018-11-02T09:35:27.980Z,13.70
2018-11-02T09:37:56.916Z,13.07
2018-11-02T09:40:25.796Z,15.80
2018-11-02T09:42:54.694Z,16.57
2018-11-02T09:45:23.695Z,12.40
2018-11-02T09:47:52.663Z,10.47
2018-11-02T09:50:21.694Z,12.20
2018-11-02T09:52:50.586Z,11.80
2018-11-02T09:55:19.486Z,16.17
2018-11-02T09:57:49.771Z,12.67
2018-11-02T10:00:18.695Z,11.53
2018-11-02T10:02:47.707Z,12.90
2018-11-02T10:05:16.759Z,11.40
2018-11-02T10:07:45.790Z,7.80
2018-11-02T10:10:16.099Z,11.80
2018-11-02T10:12:45.103Z,8.90
2018-11-02T10:15:15.446Z,8.03
2018-11-02T10:17:44.583Z,14.53
2018-11-02T10:20:13.698Z,14.43
2018-11-02T10:22:42.678Z,15.00
2018-11-02T10:25:12.211Z,12.03
2018-11-02T10:27:42.695Z,11.43
2018-11-02T10:30:13.344Z,9.53
2018-11-02T10:32:45.383Z,12.03
2018-11-02T10:35:14.516Z,10.40
2018-11-02T10:37:43.650Z,8.43
2018-11-02T10:40:15.353Z,10.17
2018-11-02T10:42:45.804Z,10.87
2018-11-02T10:45:15.056Z,9.67
2018-11-02T10:47:44.078Z,7.57
2018-11-02T10:50:13.098Z,7.80
2018-11-02T10:52:42.178Z,9.57
2018-11-02T10:55:11.242Z,11.23
2018-11-02T10:57:40.280Z,11.00
2018-11-02T11:00:16.821Z,8.73
2018-11-02T11:02:45.841Z,13.30
2018-11-02T11:05:14.817Z,9.20
2018-11-02T11:07:43.750Z,12.20
2018-11-02T11:10:13.022Z,10.60
2018-11-02T11:12:42.525Z,10.17
2018-11-02T11:15:11.299Z,10.37
2018-11-02T11:17:40.319Z,8.20
2018-11-02T11:20:11.694Z,9.83
2018-11-02T11:22:40.907Z,11.70
2018-11-02T11:25:13.243Z,7.50
2018-11-02T11:27:42.209Z,13.17
2018-11-02T11:30:17.535Z,10.73
2018-11-02T11:32:47.078Z,12.27
2018-11-02T11:35:17.098Z,9.30
2018-11-02T11:37:46.215Z,8.30
2018-11-02T11:40:18.030Z,11.17
2018-11-02T11:42:47.088Z,15.10
2018-11-02T11:45:18.882Z,12.77
2018-11-02T11:47:47.889Z,13.20
2018-11-02T11:50:22.031Z,14.50
2018-11-02T11:52:52.086Z,14.47
2018-11-02T11:55:21.101Z,12.00
2018-11-02T11:57:50.016Z,12.33
2018-11-02T12:00:20.459Z,11.80
2018-11-02T12:02:50.205Z,13.43
2018-11-02T12:05:20.337Z,24.33
2018-11-02T12:07:49.452Z,31.20
2018-11-02T12:10:21.446Z,14.17
2018-11-02T12:12:50.470Z,21.37
2018-11-02T12:15:20.532Z,9.73
2018-11-02T12:17:50.183Z,9.90
2018-11-02T12:20:20.644Z,12.20
2018-11-02T12:22:50.667Z,12.67
2018-11-02T12:25:19.702Z,15.37
2018-11-02T12:27:48.730Z,14.83
2018-11-02T12:30:18.735Z,14.03
2018-11-02T12:32:47.715Z,12.73
2018-11-02T12:35:17.626Z,17.73
2018-11-02T12:37:46.636Z,16.33
2018-11-02T12:40:23.614Z,11.60
2018-11-02T12:42:53.494Z,11.97
2018-11-02T12:45:22.964Z,12.33
2018-11-02T12:47:52.030Z,11.27
2018-11-02T12:50:23.413Z,16.87
2018-11-02T12:52:55.024Z,11.50
2018-11-02T12:55:24.293Z,12.37
2018-11-02T12:57:53.330Z,16.40
2018-11-02T13:00:26.610Z,10.97
2018-11-02T13:02:55.870Z,11.10
2018-11-02T13:05:24.968Z,13.93
2018-11-02T13:07:53.910Z,12.97
2018-11-02T13:10:23.566Z,11.97
2018-11-02T13:12:52.553Z,12.27
2018-11-02T13:15:22.738Z,10.83
2018-11-02T13:17:52.018Z,12.27
2018-11-02T13:20:21.126Z,10.70
2018-11-02T13:22:50.594Z,12.47
2018-11-02T13:25:20.932Z,16.00
2018-11-02T13:27:50.669Z,12.83
2018-11-02T13:30:19.711Z,12.60
2018-11-02T13:32:48.627Z,10.67
2018-11-02T13:35:19.121Z,11.13
2018-11-02T13:37:48.724Z,17.00
2018-11-02T13:40:18.515Z,11.67
2018-11-02T13:42:47.546Z,15.67
2018-11-02T13:45:17.714Z,12.73
2018-11-02T13:47:49.321Z,14.40
2018-11-02T13:50:18.295Z,12.93
2018-11-02T13:52:47.137Z,15.87
2018-11-02T13:55:16.047Z,11.90
2018-11-02T13:57:44.935Z,13.37
2018-11-02T14:00:16.243Z,10.73
2018-11-02T14:02:45.335Z,11.40
2018-11-02T14:05:15.426Z,12.77
2018-11-02T14:07:44.384Z,15.00
2018-11-02T14:10:15.318Z,13.13
2018-11-02T14:12:44.254Z,14.47
2018-11-02T14:15:15.182Z,14.53
2018-11-02T14:17:44.416Z,19.23
2018-11-02T14:20:14.112Z,18.03
2018-11-02T14:22:43.074Z,16.03
2018-11-02T14:25:15.470Z,11.03
2018-11-02T14:27:44.848Z,11.80
2018-11-02T14:30:16.217Z,13.93
2018-11-02T14:32:45.854Z,16.27
2018-11-02T14:35:14.820Z,14.17
2018-11-02T14:37:43.873Z,12.73
2018-11-02T14:40:12.921Z,12.07
2018-11-02T14:42:42.310Z,15.93
2018-11-02T14:45:13.410Z,13.20
2018-11-02T14:47:42.372Z,13.13
2018-11-02T14:50:11.881Z,14.27
2018-11-02T14:52:40.916Z,13.43
2018-11-02T14:55:10.223Z,13.70
2018-11-02T14:57:39.754Z,12.23
2018-11-02T15:00:10.222Z,12.27
2018-11-02T15:02:39.534Z,19.63
2018-11-02T15:05:09.654Z,12.73
2018-11-02T15:07:38.619Z,15.87
2018-11-02T15:10:07.788Z,13.43
2018-11-02T15:12:37.116Z,13.67
2018-11-02T15:15:06.569Z,18.03
2018-11-02T15:17:35.562Z,14.07
2018-11-02T15:20:05.182Z,11.67
2018-11-02T15:22:34.108Z,15.87
2018-11-02T15:25:03.104Z,16.13
2018-11-02T15:27:32.174Z,12.93
2018-11-02T15:30:01.166Z,14.60
2018-11-02T15:32:31.482Z,17.67
2018-11-02T15:35:00.439Z,14.20
2018-11-02T15:37:29.315Z,11.37
2018-11-02T15:39:58.308Z,12.40
2018-11-02T15:42:27.280Z,15.60
2018-11-02T15:44:56.239Z,15.57
2018-11-02T15:47:25.239Z,12.17
2018-11-02T15:49:54.186Z,11.87
2018-11-02T15:52:23.119Z,14.90
2018-11-02T15:54:52.257Z,13.40
2018-11-02T15:57:21.178Z,14.17
2018-11-02T15:59:50.068Z,16.60
2018-11-02T16:02:20.504Z,15.73
2018-11-02T16:04:49.479Z,16.53
2018-11-02T16:07:18.412Z,14.37
2018-11-02T16:09:48.554Z,13.97
2018-11-02T16:12:17.528Z,15.57
2018-11-02T16:14:46.625Z,15.03
2018-11-02T16:17:16.868Z,13.30
2018-11-02T16:19:45.785Z,17.83
2018-11-02T16:22:14.807Z,14.43
2018-11-02T16:24:44.610Z,15.53
2018-11-02T16:27:13.478Z,15.20
2018-11-02T16:29:42.432Z,13.20
2018-11-02T16:32:12.723Z,12.47
2018-11-02T16:34:41.680Z,15.97
2018-11-02T16:37:11.887Z,15.20
2018-11-02T16:39:40.883Z,15.43
2018-11-02T16:42:09.780Z,14.00
2018-11-02T16:44:38.780Z,13.87
2018-11-02T16:47:07.886Z,11.97
2018-11-02T16:49:36.869Z,13.73
2018-11-02T16:52:07.522Z,16.57
2018-11-02T16:54:36.553Z,15.67
2018-11-02T16:57:05.522Z,12.50
2018-11-02T16:59:34.559Z,13.77
2018-11-02T17:02:03.506Z,10.80
2018-11-02T17:04:33.753Z,13.20
2018-11-02T17:07:02.723Z,10.77
2018-11-02T17:09:31.635Z,12.37
2018-11-02T17:12:00.575Z,10.97
2018-11-02T17:14:29.471Z,13.03
2018-11-02T17:16:58.450Z,15.83
2018-11-02T17:19:27.479Z,12.33
2018-11-02T17:21:56.459Z,11.80
2018-11-02T17:24:25.404Z,13.13
2018-11-02T17:26:54.448Z,12.30
2018-11-02T17:29:23.395Z,11.97
2018-11-02T17:31:52.402Z,11.13
2018-11-02T17:34:21.338Z,13.40
2018-11-02T17:36:50.350Z,13.50
2018-11-02T17:39:19.302Z,10.53
2018-11-02T17:41:49.481Z,14.83
2018-11-02T17:44:18.436Z,13.93
2018-11-02T17:46:47.630Z,16.17
2018-11-02T17:49:18.028Z,13.47
2018-11-02T17:51:46.963Z,12.60
2018-11-02T17:54:15.886Z,13.70
2018-11-02T17:56:44.850Z,13.57
2018-11-02T17:59:13.913Z,12.70
2018-11-02T18:01:42.915Z,12.10
2018-11-02T18:04:11.994Z,12.47
2018-11-02T18:06:40.947Z,13.57
2018-11-02T18:09:11.338Z,14.87
2018-11-02T18:11:40.688Z,13.37
2018-11-02T18:14:09.647Z,12.97
2018-11-02T18:16:38.724Z,13.97
2018-11-02T18:19:07.764Z,14.07
2018-11-02T18:21:36.762Z,12.20
2018-11-02T18:24:05.817Z,14.27
2018-11-02T18:26:34.844Z,23.60
2018-11-02T18:29:03.907Z,10.27
2018-11-02T18:31:33.055Z,11.73
2018-11-02T18:34:02.076Z,13.03
2018-11-02T18:36:31.062Z,14.63
2018-11-02T18:39:00.059Z,11.57
2018-11-02T18:41:28.975Z,12.73
2018-11-02T18:43:57.969Z,15.53
2018-11-02T18:46:26.902Z,15.33
2018-11-02T18:48:55.867Z,13.83
2018-11-02T18:51:26.276Z,13.23
2018-11-02T18:53:55.241Z,11.37
2018-11-02T18:56:24.178Z,14.40
2018-11-02T18:58:54.380Z,13.97
2018-11-02T19:01:23.477Z,14.07
2018-11-02T19:03:52.371Z,9.77
2018-11-02T19:06:21.407Z,10.63
2018-11-02T19:08:50.452Z,11.63
2018-11-02T19:11:19.463Z,13.53
2018-11-02T19:13:48.475Z,12.00
2018-11-02T19:16:17.529Z,14.80
2018-11-02T19:18:46.490Z,10.67
2018-11-02T19:21:15.973Z,13.67
2018-11-02T19:23:44.936Z,10.00
2018-11-02T19:26:13.892Z,10.57
2018-11-02T19:28:42.860Z,11.37
2018-11-02T19:31:11.813Z,10.83
2018-11-02T19:33:40.996Z,9.90
2018-11-02T19:36:09.960Z,9.77
2018-11-02T19:38:39.176Z,12.83
2018-11-02T19:41:07.935Z,10.63
2018-11-02T19:43:36.899Z,11.43
2018-11-02T19:46:06.466Z,11.63
2018-11-02T19:48:37.417Z,10.93
2018-11-02T19:51:08.359Z,13.57
2018-11-02T19:53:37.396Z,14.77
2018-11-02T19:56:06.566Z,12.30
2018-11-02T19:58:35.515Z,11.47
2018-11-02T20:01:04.543Z,12.30
2018-11-02T20:03:33.507Z,10.67
2018-11-02T20:06:02.411Z,12.17
2018-11-02T20:08:31.463Z,12.43
2018-11-02T20:11:00.434Z,12.47
2018-11-02T20:13:29.380Z,10.87
2018-11-02T20:15:59.644Z,9.63
2018-11-02T20:18:28.734Z,10.37
2018-11-02T20:20:57.693Z,11.13
2018-11-02T20:23:27.915Z,11.97
2018-11-02T20:25:58.165Z,9.87
2018-11-02T20:28:27.384Z,11.77
2018-11-02T20:30:56.386Z,14.63
2018-11-02T20:33:25.418Z,13.40
2018-11-02T20:35:54.334Z,11.60
2018-11-02T20:38:23.556Z,13.80
2018-11-02T20:40:52.682Z,14.27
2018-11-02T20:43:21.552Z,12.97
2018-11-02T20:45:50.486Z,11.87
2018-11-02T20:48:19.505Z,12.37
2018-11-02T20:50:48.491Z,13.23
2018-11-02T20:53:17.518Z,10.93
2018-11-02T20:55:46.471Z,10.33
2018-11-02T20:58:15.514Z,11.13
2018-11-02T21:00:44.445Z,13.53
2018-11-02T21:03:13.367Z,11.83
2018-11-02T21:05:42.441Z,11.73
2018-11-02T21:08:11.500Z,12.93
2018-11-02T21:10:40.399Z,13.47
2018-11-02T21:13:09.467Z,11.20
2018-11-02T21:15:38.495Z,11.03
2018-11-02T21:18:07.402Z,13.30
2018-11-02T21:20:36.365Z,12.53
2018-11-02T21:23:05.598Z,13.57
2018-11-02T21:25:34.738Z,12.03
2018-11-02T21:28:03.783Z,12.43
2018-11-02T21:30:32.775Z,15.27
2018-11-02T21:33:01.747Z,11.17
2018-11-02T21:35:30.731Z,12.80
2018-11-02T21:37:59.776Z,15.57
2018-11-02T21:40:28.778Z,13.77
2018-11-02T21:42:57.752Z,13.30
2018-11-02T21:45:26.723Z,11.40
2018-11-02T21:47:55.979Z,13.40
2018-11-02T21:50:24.952Z,15.13
2018-11-02T21:52:53.835Z,13.67
2018-11-02T21:55:22.813Z,18.80
2018-11-02T21:57:51.842Z,12.93
2018-11-02T22:00:21.976Z,10.77
2018-11-02T22:02:50.890Z,12.87
2018-11-02T22:05:19.875Z,14.67
2018-11-02T22:07:49.778Z,11.70
2018-11-02T22:10:18.963Z,13.47
2018-11-02T22:12:47.959Z,13.30
2018-11-02T22:15:16.954Z,13.87
2018-11-02T22:17:45.951Z,9.73
2018-11-02T22:20:15.663Z,14.37
2018-11-02T22:22:44.664Z,9.57
2018-11-02T22:25:14.522Z,11.13
2018-11-02T22:27:43.593Z,11.30
2018-11-02T22:30:16.192Z,11.23
2018-11-02T22:32:45.145Z,14.23
2018-11-02T22:35:14.899Z,15.07
2018-11-02T22:37:44.130Z,14.70
2018-11-02T22:40:13.887Z,14.30
2018-11-02T22:42:43.513Z,11.17
2018-11-02T22:45:13.683Z,11.70
2018-11-02T22:47:46.742Z,10.97
2018-11-02T22:50:15.797Z,11.00
2018-11-02T22:52:44.765Z,10.97
2018-11-02T22:55:13.642Z,15.20
2018-11-02T22:57:42.626Z,9.87
2018-11-02T23:00:16.926Z,15.73
2018-11-02T23:02:46.691Z,12.10
2018-11-02T23:05:15.698Z,13.97
2018-11-02T23:07:45.182Z,12.40
2018-11-02T23:10:14.296Z,15.03
2018-11-02T23:12:43.293Z,13.30
2018-11-02T23:15:12.883Z,12.13
2018-11-02T23:17:41.857Z,17.93
2018-11-02T23:20:13.266Z,12.90
2018-11-02T23:22:42.214Z,10.73
2018-11-02T23:25:12.023Z,12.50
2018-11-02T23:27:42.191Z,12.37
2018-11-02T23:30:11.654Z,10.57
2018-11-02T23:32:40.632Z,13.13
2018-11-02T23:35:09.899Z,13.90
2018-11-02T23:37:39.042Z,11.93
2018-11-02T23:40:09.021Z,11.60
2018-11-02T23:42:37.974Z,12.77
2018-11-02T23:45:07.423Z,11.67
2018-11-02T23:47:36.471Z,13.43
2018-11-02T23:50:07.001Z,11.10
2018-11-02T23:52:35.903Z,12.63
2018-11-02T23:55:05.007Z,10.43
2018-11-02T23:57:33.916Z,10.23
